Hindu — WDG6190 — position and weather

sailwx.info

Track history (hours):
 
Tides and Currents Weather Stations Pressure Air Temp Water Temp Dewpoint Dewpoint Depression Visibility Wind Speed Wind Dir Waves Ship Positions

Hindu

Owner: Hindu Charters LLC, Key West, FL. More information available from US FCC via Universal Licensing System and Coast Guard Vessel Documentation Center.

Last reported at 2015-Jul-01 06:33 UTC. Time now 2015-Jul-01 06:37 UTC.
Position N 41°05' W 071°23'.

Length 24 m.

Type: Sailing vessel. MMSI: 367554370.

Date/timePositionNaut miles runAvg speedWind from/ knotsBaromVisibWave heightAir tempDewpointWater temp
2015-Jul-01 06:33N 41°05' W 071°23'9 7.3
2015-Jul-01 05:17N 40°59' W 071°31'5 7.4
2015-Jul-01 04:33N 40°55' W 071°36'8 7.4
2015-Jul-01 03:32N 40°49' W 071°44'7 7.4
2015-Jul-01 02:33N 40°45' W 071°51'8 7.6
2015-Jul-01 01:31N 40°39' W 071°58'7 7.6
2015-Jul-01 00:33N 40°34' W 072°06'8 7.7
2015-Jun-30 23:33N 40°29' W 072°13'10 8.2
2015-Jun-30 22:20N 40°23' W 072°23'7 8.3
2015-Jun-30 21:32N 40°18' W 072°29'9 8.6
2015-Jun-30 20:28N 40°12' W 072°38'128 4.7
2015-Jun-29 17:26N 39°49' W 075°23'6 7.2
2015-Jun-29 16:33N 39°51' W 075°15'6 6.0
2015-Jun-29 15:32N 39°54' W 075°08'3 3.3
2015-Jun-29 14:31N 39°57' W 075°08'0 0.0
2015-Jun-29 00:33N 39°57' W 075°08'1 0.2
2015-Jun-28 22:07N 39°56' W 075°08'0 0.3
2015-Jun-28 21:32N 39°56' W 075°08'0 0.1
2015-Jun-28 19:11N 39°57' W 075°08'0 0.5
2015-Jun-28 18:23N 39°57' W 075°08'0 0.3
2015-Jun-28 17:12N 39°57' W 075°08'0 0.0
2015-Jun-28 16:28N 39°56' W 075°08'1 1.3
2015-Jun-28 15:33N 39°58' W 075°08'1 0.1
2015-Jun-27 19:33N 39°56' W 075°08'1 0.6
2015-Jun-27 18:30N 39°57' W 075°08'1 0.6
2015-Jun-27 17:31N 39°57' W 075°08'1 1.0
2015-Jun-27 16:33N 39°56' W 075°08'1 0.9
2015-Jun-27 15:28N 39°57' W 075°08'0 0.0
2015-Jun-26 22:09N 39°57' W 075°08'0 0.0
2015-Jun-26 19:33N 39°57' W 075°08'0 0.2
2015-Jun-26 18:30N 39°56' W 075°08'0 0.2
2015-Jun-26 17:28N 39°56' W 075°08'0 0.2
2015-Jun-26 16:28N 39°56' W 075°08'0 0.2
2015-Jun-26 15:30N 39°57' W 075°08'0 0.4
2015-Jun-26 14:33N 39°57' W 075°08'0 0.0
2015-Jun-26 00:33N 39°57' W 075°08'0 0.0
2015-Jun-25 23:33N 39°57' W 075°08'1 0.2
2015-Jun-25 20:05N 39°56' W 075°08'1 1.1
2015-Jun-25 19:32N 39°57' W 075°08'0 0.2
2015-Jun-25 18:30N 39°57' W 075°08'3 3.3
2015-Jun-25 17:29N 39°54' W 075°08'3 3.0
2015-Jun-25 16:30N 39°57' W 075°08'0 0.0
2015-Jun-25 15:33N 39°57' W 075°08'0 0.0
2015-Jun-25 14:33N 39°57' W 075°08'  
Track history (hours):
 
Tides and Currents Weather Stations Pressure Air Temp Water Temp Dewpoint Dewpoint Depression Visibility Wind Speed Wind Dir Waves Ship Positions

Hindu

Owner: Hindu Charters LLC, Key West, FL. More information available from US FCC via Universal Licensing System and Coast Guard Vessel Documentation Center.

Last reported at 2015-Jul-01 06:33 UTC. Time now 2015-Jul-01 06:37 UTC.
Position N 41°05' W 071°23'.

Length 24 m.

Type: Sailing vessel. MMSI: 367554370.

Date/timePositionNaut miles runAvg speedWind from/ knotsBaromVisibWave heightAir tempDewpointWater temp
2015-Jul-01 06:33N 41°05' W 071°23'9 7.3
2015-Jul-01 05:17N 40°59' W 071°31'5 7.4
2015-Jul-01 04:33N 40°55' W 071°36'8 7.4
2015-Jul-01 03:32N 40°49' W 071°44'7 7.4
2015-Jul-01 02:33N 40°45' W 071°51'8 7.6
2015-Jul-01 01:31N 40°39' W 071°58'7 7.6
2015-Jul-01 00:33N 40°34' W 072°06'8 7.7
2015-Jun-30 23:33N 40°29' W 072°13'10 8.2
2015-Jun-30 22:20N 40°23' W 072°23'7 8.3
2015-Jun-30 21:32N 40°18' W 072°29'9 8.6
2015-Jun-30 20:28N 40°12' W 072°38'128 4.7
2015-Jun-29 17:26N 39°49' W 075°23'6 7.2
2015-Jun-29 16:33N 39°51' W 075°15'6 6.0
2015-Jun-29 15:32N 39°54' W 075°08'3 3.3
2015-Jun-29 14:31N 39°57' W 075°08'0 0.0
2015-Jun-29 00:33N 39°57' W 075°08'1 0.2
2015-Jun-28 22:07N 39°56' W 075°08'0 0.3
2015-Jun-28 21:32N 39°56' W 075°08'0 0.1
2015-Jun-28 19:11N 39°57' W 075°08'0 0.5
2015-Jun-28 18:23N 39°57' W 075°08'0 0.3
2015-Jun-28 17:12N 39°57' W 075°08'0 0.0
2015-Jun-28 16:28N 39°56' W 075°08'1 1.3
2015-Jun-28 15:33N 39°58' W 075°08'1 0.1
2015-Jun-27 19:33N 39°56' W 075°08'1 0.6
2015-Jun-27 18:30N 39°57' W 075°08'1 0.6
2015-Jun-27 17:31N 39°57' W 075°08'1 1.0
2015-Jun-27 16:33N 39°56' W 075°08'1 0.9
2015-Jun-27 15:28N 39°57' W 075°08'0 0.0
2015-Jun-26 22:09N 39°57' W 075°08'0 0.0
2015-Jun-26 19:33N 39°57' W 075°08'0 0.2
2015-Jun-26 18:30N 39°56' W 075°08'0 0.2
2015-Jun-26 17:28N 39°56' W 075°08'0 0.2
2015-Jun-26 16:28N 39°56' W 075°08'0 0.2
2015-Jun-26 15:30N 39°57' W 075°08'0 0.4
2015-Jun-26 14:33N 39°57' W 075°08'0 0.0
2015-Jun-26 00:33N 39°57' W 075°08'0 0.0
2015-Jun-25 23:33N 39°57' W 075°08'1 0.2
2015-Jun-25 20:05N 39°56' W 075°08'1 1.1
2015-Jun-25 19:32N 39°57' W 075°08'0 0.2
2015-Jun-25 18:30N 39°57' W 075°08'3 3.3
2015-Jun-25 17:29N 39°54' W 075°08'3 3.0
2015-Jun-25 16:30N 39°57' W 075°08'0 0.0
2015-Jun-25 15:33N 39°57' W 075°08'0 0.0
2015-Jun-25 14:33N 39°57' W 075°08'  

Dump ship's entire track history